Time;durP1;ratioP1;P1;durP2;ratioP2;P2;SDS_P1;SDS_P2;PMS_P1;PMS_P2;Temp;Humidity;BMP_temperature;BMP_pressure;BME280_temperature;BME280_humidity;BME280_pressure;Samples;Min_cycle;Max_cycle;Signal;HPM_P1;HPM_P2
2024/04/05 00:00:07;;;;;;;2.00;1.10;;;12.50;99.90;;;;;;5115509;28;20507;-66
2024/04/05 00:02:34;;;;;;;1.10;0.80;;;12.40;99.90;;;;;;5115572;28;20449;-66
2024/04/05 00:05:00;;;;;;;1.00;0.90;;;12.40;99.90;;;;;;5115381;28;20437;-66
2024/04/05 00:07:26;;;;;;;2.37;2.17;;;12.40;99.90;;;;;;5115243;28;20878;-66
2024/04/05 00:09:51;;;;;;;1.13;0.80;;;12.50;99.90;;;;;;5115136;28;20237;-66
2024/04/05 00:12:19;;;;;;;1.47;0.90;;;12.50;99.90;;;;;;5115039;28;20536;-66
2024/04/05 00:14:45;;;;;;;1.90;1.00;;;12.40;99.90;;;;;;5115261;28;20184;-66
2024/04/05 00:17:11;;;;;;;2.20;1.00;;;12.50;99.90;;;;;;5114953;28;20544;-66
2024/04/05 00:19:37;;;;;;;5.03;1.03;;;12.40;99.90;;;;;;5115041;28;20279;-66
2024/04/05 00:22:04;;;;;;;2.17;0.80;;;12.40;99.90;;;;;;5114945;28;20540;-66
2024/04/05 00:24:29;;;;;;;1.57;0.80;;;12.40;99.90;;;;;;5114885;28;20227;-66
2024/04/05 00:26:56;;;;;;;2.50;0.83;;;12.40;99.90;;;;;;5114724;28;20473;-66
2024/04/05 00:29:23;;;;;;;3.00;1.17;;;12.50;99.90;;;;;;5114874;28;20574;-66
2024/04/05 00:31:49;;;;;;;2.10;0.90;;;12.60;99.90;;;;;;5114797;28;20450;-66
2024/04/05 00:34:15;;;;;;;1.23;1.03;;;12.60;99.90;;;;;;5115028;28;20444;-66
2024/04/05 00:36:41;;;;;;;2.00;1.00;;;12.70;99.90;;;;;;5114684;28;20539;-66
2024/04/05 00:39:06;;;;;;;1.40;1.10;;;12.70;99.90;;;;;;5114676;28;20191;-66
2024/04/05 00:41:33;;;;;;;1.87;0.93;;;12.70;99.90;;;;;;5114458;28;20892;-67
2024/04/05 00:43:58;;;;;;;2.73;1.00;;;12.70;99.90;;;;;;5114688;28;20591;-66
2024/04/05 00:46:26;;;;;;;1.97;0.90;;;12.70;99.90;;;;;;5114457;28;20569;-66
2024/04/05 00:48:52;;;;;;;1.30;0.90;;;12.80;99.90;;;;;;5114366;28;20307;-67
2024/04/05 00:51:19;;;;;;;3.57;1.00;;;12.90;99.90;;;;;;5114460;28;20485;-66
2024/04/05 00:53:46;;;;;;;1.17;1.07;;;12.90;99.90;;;;;;5114332;28;20448;-66
2024/04/05 00:56:13;;;;;;;3.63;0.90;;;12.90;99.90;;;;;;5113435;28;20457;-66
2024/04/05 00:58:39;;;;;;;3.67;1.03;;;12.90;99.90;;;;;;5114214;28;20945;-66
2024/04/05 01:01:05;;;;;;;1.13;0.80;;;12.90;99.90;;;;;;5114563;28;20456;-66
2024/04/05 01:03:32;;;;;;;2.87;0.97;;;12.90;99.90;;;;;;5114563;28;20275;-66
2024/04/05 01:05:59;;;;;;;1.80;0.90;;;12.90;99.90;;;;;;5114033;28;20479;-66
2024/04/05 01:08:25;;;;;;;3.17;0.90;;;12.90;99.90;;;;;;5113851;28;20446;-66
2024/04/05 01:10:51;;;;;;;1.47;0.80;;;12.80;99.90;;;;;;5114172;28;20477;-66
2024/04/05 01:13:17;;;;;;;0.80;0.80;;;12.80;99.90;;;;;;5114072;28;20452;-66
2024/04/05 01:15:43;;;;;;;4.23;1.50;;;12.70;99.90;;;;;;5114042;28;20533;-66
2024/04/05 01:18:10;;;;;;;2.10;1.20;;;12.60;99.90;;;;;;5113903;28;20194;-66
2024/04/05 01:20:39;;;;;;;2.03;1.17;;;12.50;99.90;;;;;;5113977;28;20469;-66
2024/04/05 01:23:05;;;;;;;1.33;1.10;;;12.60;99.90;;;;;;5113753;28;20983;-66
2024/04/05 01:25:34;;;;;;;2.43;1.43;;;12.60;99.90;;;;;;5113961;28;20454;-66
2024/04/05 01:28:01;;;;;;;3.07;1.00;;;12.50;99.90;;;;;;5113951;28;20449;-66
2024/04/05 01:30:28;;;;;;;3.40;1.60;;;12.60;99.90;;;;;;5113665;28;20534;-66
2024/04/05 01:32:56;;;;;;;3.00;0.90;;;12.50;99.90;;;;;;5113710;28;20537;-66
2024/04/05 01:35:22;;;;;;;3.43;1.10;;;12.60;99.90;;;;;;5113603;28;20510;-66
2024/04/05 01:37:48;;;;;;;4.57;1.47;;;12.60;99.90;;;;;;5113557;28;20808;-66
2024/04/05 01:40:15;;;;;;;2.70;1.07;;;12.50;99.90;;;;;;5113838;28;20540;-66
2024/04/05 01:42:42;;;;;;;2.57;1.20;;;12.60;99.90;;;;;;5113854;28;20190;-66
2024/04/05 01:45:09;;;;;;;3.00;0.97;;;12.50;99.90;;;;;;5113564;28;20461;-66
2024/04/05 01:47:34;;;;;;;2.27;1.07;;;12.40;99.90;;;;;;5113523;28;20475;-66
2024/04/05 01:50:02;;;;;;;3.80;1.20;;;12.50;99.90;;;;;;5113293;28;20573;-66
2024/04/05 01:52:27;;;;;;;1.77;1.10;;;12.50;99.90;;;;;;5113626;28;20279;-66
2024/04/05 01:54:55;;;;;;;2.93;1.23;;;12.50;99.90;;;;;;5113588;28;20484;-66
2024/04/05 01:57:20;;;;;;;2.57;1.30;;;12.60;99.90;;;;;;5113455;28;20188;-66
2024/04/05 01:59:49;;;;;;;1.10;0.90;;;12.50;99.90;;;;;;5113376;28;21031;-66
2024/04/05 02:02:14;;;;;;;1.97;1.30;;;12.60;99.90;;;;;;5113416;28;20183;-66
2024/04/05 02:04:41;;;;;;;1.40;0.93;;;12.60;99.90;;;;;;5113239;28;20549;-66
2024/04/05 02:07:07;;;;;;;3.53;1.10;;;12.60;99.90;;;;;;5114481;28;20245;-66
2024/04/05 02:09:33;;;;;;;3.10;1.00;;;12.50;99.90;;;;;;5117595;28;20477;-66
2024/04/05 02:11:59;;;;;;;2.30;1.00;;;12.40;99.90;;;;;;5117554;28;20307;-66
2024/04/05 02:14:25;;;;;;;4.27;1.10;;;12.40;99.90;;;;;;5117621;28;20489;-66
2024/04/05 02:16:55;;;;;;;2.20;0.80;;;12.40;99.90;;;;;;5117522;28;20287;-66
2024/04/05 02:19:21;;;;;;;1.77;1.30;;;12.40;99.90;;;;;;5117207;28;20460;-66
2024/04/05 02:21:47;;;;;;;1.80;1.17;;;12.50;99.90;;;;;;5117500;28;20441;-66
2024/04/05 02:24:13;;;;;;;4.60;1.63;;;12.50;99.90;;;;;;5117366;28;20541;-66
2024/04/05 02:26:39;;;;;;;1.77;1.00;;;12.40;99.90;;;;;;5117277;28;20701;-66
2024/04/05 02:29:05;;;;;;;2.00;0.97;;;12.50;99.90;;;;;;5117146;28;20556;-66
2024/04/05 02:31:31;;;;;;;3.07;1.17;;;12.40;99.90;;;;;;5117209;28;20638;-66
2024/04/05 02:33:59;;;;;;;2.50;1.10;;;12.40;99.90;;;;;;5116998;28;20473;-66
2024/04/05 02:36:24;;;;;;;5.83;1.70;;;12.40;99.90;;;;;;5117229;28;20269;-66
2024/04/05 02:38:51;;;;;;;2.00;1.07;;;12.40;99.90;;;;;;5117153;28;20537;-66
2024/04/05 02:41:17;;;;;;;1.87;1.13;;;12.40;99.90;;;;;;5116950;28;20196;-66
2024/04/05 02:43:43;;;;;;;1.90;1.10;;;12.40;99.90;;;;;;5116784;28;20506;-66
2024/04/05 02:46:09;;;;;;;2.53;1.00;;;12.30;99.90;;;;;;5116744;28;20226;-66
2024/04/05 02:48:35;;;;;;;1.43;0.90;;;12.30;99.90;;;;;;5116711;28;20540;-66
2024/04/05 02:51:02;;;;;;;4.23;1.43;;;12.40;99.90;;;;;;5116841;28;20255;-66
2024/04/05 02:53:29;;;;;;;3.87;1.17;;;12.40;99.90;;;;;;5116671;28;20452;-66
2024/04/05 02:55:54;;;;;;;1.30;1.07;;;12.40;99.90;;;;;;5116816;28;20442;-66
2024/04/05 02:58:21;;;;;;;3.40;1.20;;;12.50;99.90;;;;;;5116727;28;20560;-66
2024/04/05 03:00:48;;;;;;;2.40;1.30;;;12.50;99.90;;;;;;5116522;28;20280;-66
2024/04/05 03:03:15;;;;;;;5.27;1.50;;;12.50;99.90;;;;;;5116752;28;20453;-66
2024/04/05 03:05:40;;;;;;;3.17;1.37;;;12.60;99.90;;;;;;5116636;28;20548;-66
2024/04/05 03:08:08;;;;;;;4.70;1.33;;;12.50;99.90;;;;;;5116416;28;20481;-66
2024/04/05 03:10:34;;;;;;;1.80;1.30;;;12.60;99.90;;;;;;5116349;28;20594;-66
2024/04/05 03:13:00;;;;;;;1.17;1.07;;;12.60;99.90;;;;;;5116358;28;20534;-66
2024/04/05 03:15:26;;;;;;;3.00;1.93;;;12.60;99.90;;;;;;5116229;28;20264;-67
2024/04/05 03:17:52;;;;;;;3.97;0.90;;;12.60;99.90;;;;;;5116167;28;20640;-66
2024/04/05 03:20:18;;;;;;;2.03;1.00;;;12.60;99.90;;;;;;5115432;28;20275;-66
2024/04/05 03:22:45;;;;;;;3.27;1.30;;;12.60;99.90;;;;;;5116017;28;20460;-66
2024/04/05 03:25:12;;;;;;;6.00;1.30;;;12.60;99.90;;;;;;5116069;28;20446;-66
2024/04/05 03:27:38;;;;;;;3.83;1.37;;;12.60;99.90;;;;;;5116261;28;20933;-66
2024/04/05 03:30:04;;;;;;;1.53;1.07;;;12.50;99.90;;;;;;5115777;28;20904;-66
2024/04/05 03:32:31;;;;;;;2.90;0.97;;;12.60;99.90;;;;;;5115972;28;20454;-66
2024/04/05 03:34:57;;;;;;;3.87;1.83;;;12.60;99.90;;;;;;5115959;28;20532;-66
2024/04/05 03:37:23;;;;;;;2.93;1.57;;;12.60;99.90;;;;;;5115884;28;20549;-66
2024/04/05 03:39:52;;;;;;;1.57;1.47;;;12.50;99.90;;;;;;5115702;28;20674;-66
2024/04/05 03:42:20;;;;;;;3.23;1.30;;;12.50;99.90;;;;;;5115727;28;20446;-66
2024/04/05 03:44:46;;;;;;;3.63;1.10;;;12.40;99.90;;;;;;5115525;28;20529;-66
2024/04/05 03:47:13;;;;;;;1.23;0.87;;;12.30;99.90;;;;;;5115447;28;20558;-66
2024/04/05 03:49:38;;;;;;;2.90;1.10;;;12.30;99.90;;;;;;5115578;28;20480;-66
2024/04/05 03:52:06;;;;;;;4.77;1.03;;;12.30;99.90;;;;;;5115483;28;20533;-66
2024/04/05 03:54:32;;;;;;;2.30;1.00;;;12.30;99.90;;;;;;5115591;28;20219;-66
2024/04/05 03:56:58;;;;;;;3.60;1.20;;;12.30;99.90;;;;;;5115407;28;20450;-66
2024/04/05 03:59:26;;;;;;;3.10;1.60;;;12.20;99.90;;;;;;5115319;28;20449;-66
2024/04/05 04:01:53;;;;;;;2.50;1.10;;;12.20;99.90;;;;;;5115740;28;20556;-66
2024/04/05 04:04:19;;;;;;;2.60;1.00;;;12.20;99.90;;;;;;5115336;28;20457;-66
2024/04/05 04:06:45;;;;;;;3.73;1.57;;;12.20;99.90;;;;;;5115238;28;20449;-66
2024/04/05 04:09:11;;;;;;;3.10;1.40;;;12.20;99.90;;;;;;5115135;28;20275;-66
2024/04/05 04:11:37;;;;;;;1.30;1.13;;;12.20;99.90;;;;;;5115025;28;20537;-66
2024/04/05 04:14:03;;;;;;;1.77;1.10;;;12.10;99.90;;;;;;5115060;28;20797;-66
2024/04/05 04:16:31;;;;;;;5.40;1.30;;;12.20;99.90;;;;;;5115202;28;20540;-66
2024/04/05 04:18:57;;;;;;;2.90;1.50;;;12.20;99.90;;;;;;5115054;28;20850;-66
2024/04/05 04:21:25;;;;;;;3.20;1.20;;;12.20;99.90;;;;;;5114984;28;20453;-66
2024/04/05 04:23:50;;;;;;;3.50;1.30;;;12.30;99.90;;;;;;5114971;28;20446;-66
2024/04/05 04:26:17;;;;;;;1.50;1.33;;;12.30;99.90;;;;;;5114882;28;20534;-66
2024/04/05 04:28:43;;;;;;;4.17;1.20;;;12.30;99.90;;;;;;5115064;28;20275;-66
2024/04/05 04:31:17;;;;;;;5.37;1.90;;;12.30;99.90;;;;;;5114809;28;20520;-66
2024/04/05 04:33:45;;;;;;;3.37;1.10;;;12.30;99.90;;;;;;5115003;28;20441;-66
2024/04/05 04:36:11;;;;;;;2.30;0.97;;;12.30;99.90;;;;;;5114672;28;20948;-66
2024/04/05 04:38:37;;;;;;;3.50;1.90;;;12.30;99.90;;;;;;5114609;28;20438;-66
2024/04/05 04:41:04;;;;;;;4.73;1.93;;;12.30;99.90;;;;;;5114567;28;20475;-66
2024/04/05 04:43:29;;;;;;;4.43;1.70;;;12.30;99.90;;;;;;5114936;28;20278;-66
2024/04/05 04:45:56;;;;;;;2.77;1.17;;;12.40;99.90;;;;;;5114311;28;20572;-66
2024/04/05 04:48:21;;;;;;;5.90;1.23;;;12.30;99.90;;;;;;5114453;28;20187;-66
2024/04/05 04:50:49;;;;;;;3.83;1.37;;;12.40;99.90;;;;;;5114378;28;20906;-66
2024/04/05 04:53:16;;;;;;;2.63;1.37;;;12.40;99.90;;;;;;5114392;28;20184;-66
2024/04/05 04:55:45;;;;;;;4.03;1.20;;;12.50;99.90;;;;;;5114221;28;20453;-66
2024/04/05 04:58:11;;;;;;;2.80;1.17;;;12.50;99.90;;;;;;5114410;28;20537;-66
2024/04/05 05:00:37;;;;;;;3.80;1.73;;;12.50;99.90;;;;;;5114228;28;20572;-66
2024/04/05 05:03:03;;;;;;;2.87;1.50;;;12.40;99.90;;;;;;5114242;28;20284;-66
2024/04/05 05:05:30;;;;;;;4.67;1.97;;;12.30;99.90;;;;;;5114160;28;20540;-66
2024/04/05 05:07:57;;;;;;;2.40;1.70;;;12.30;99.90;;;;;;5113960;28;20529;-66
2024/04/05 05:10:23;;;;;;;2.47;1.40;;;12.30;99.90;;;;;;5114146;28;20478;-66
2024/04/05 05:12:49;;;;;;;2.33;1.47;;;12.30;99.90;;;;;;5114057;28;20531;-66
2024/04/05 05:15:15;;;;;;;6.37;1.87;;;12.40;99.90;;;;;;5113999;28;20550;-66
2024/04/05 05:17:41;;;;;;;2.87;1.57;;;12.50;99.90;;;;;;5114001;28;20620;-66
2024/04/05 05:20:08;;;;;;;4.40;1.73;;;12.60;99.90;;;;;;5113836;28;20540;-66
2024/04/05 05:22:33;;;;;;;1.57;1.47;;;12.70;99.90;;;;;;5113766;28;20188;-66
2024/04/05 05:25:01;;;;;;;7.23;1.60;;;12.80;99.90;;;;;;5113620;28;20851;-66
2024/04/05 05:27:27;;;;;;;3.47;1.70;;;12.80;99.90;;;;;;5113853;28;20282;-66
2024/04/05 05:29:53;;;;;;;1.43;1.20;;;12.90;99.90;;;;;;5113674;28;20553;-66
2024/04/05 05:32:19;;;;;;;2.60;1.10;;;13.00;99.90;;;;;;5113683;28;20279;-66
2024/04/05 05:34:46;;;;;;;3.40;1.73;;;13.10;99.90;;;;;;5113553;28;20991;-66
2024/04/05 05:37:11;;;;;;;2.90;1.20;;;13.30;99.90;;;;;;5113687;28;20191;-66
2024/04/05 05:39:39;;;;;;;6.30;2.20;;;13.40;99.90;;;;;;5113668;28;20506;-66
2024/04/05 05:42:07;;;;;;;4.43;1.97;;;13.60;99.90;;;;;;5113272;28;20525;-66
2024/04/05 05:44:34;;;;;;;3.70;1.40;;;13.80;99.90;;;;;;5113480;28;20527;-66
2024/04/05 05:46:59;;;;;;;3.00;1.30;;;14.10;99.90;;;;;;5113489;28;20839;-66
2024/04/05 05:49:26;;;;;;;2.00;1.20;;;14.20;99.90;;;;;;5113384;28;20541;-66
2024/04/05 05:51:51;;;;;;;6.60;1.43;;;14.50;99.90;;;;;;5113265;28;20193;-66
2024/04/05 05:54:19;;;;;;;5.47;1.50;;;14.80;99.90;;;;;;5113458;28;20553;-66
2024/04/05 05:56:45;;;;;;;3.07;1.27;;;15.10;99.90;;;;;;5113847;28;20194;-66
2024/04/05 05:59:12;;;;;;;4.00;1.60;;;15.30;99.90;;;;;;5113231;28;20500;-66
2024/04/05 06:01:38;;;;;;;2.23;1.30;;;15.70;99.90;;;;;;5113247;28;20285;-66
2024/04/05 06:04:05;;;;;;;3.10;1.33;;;15.90;99.90;;;;;;5113179;28;20546;-66
2024/04/05 06:06:30;;;;;;;2.70;1.37;;;15.80;99.90;;;;;;5113211;28;20633;-66
2024/04/05 06:08:57;;;;;;;5.00;1.43;;;16.00;99.90;;;;;;5113441;28;20530;-66
2024/04/05 06:11:22;;;;;;;3.07;1.20;;;16.00;99.90;;;;;;5113516;28;20232;-66
2024/04/05 06:13:49;;;;;;;3.80;1.20;;;16.00;99.90;;;;;;5113224;28;20544;-66
2024/04/05 06:16:16;;;;;;;3.93;1.30;;;16.00;99.90;;;;;;5113231;28;20215;-66
2024/04/05 06:18:45;;;;;;;2.50;1.60;;;15.70;99.90;;;;;;5113007;28;20950;-66
2024/04/05 06:21:11;;;;;;;3.73;1.40;;;15.70;99.90;;;;;;5113008;28;20453;-66
2024/04/05 06:23:38;;;;;;;5.43;1.83;;;15.70;99.90;;;;;;5113174;28;20459;-66
2024/04/05 06:26:03;;;;;;;2.73;1.23;;;15.80;99.90;;;;;;5112915;28;20462;-66
2024/04/05 06:28:30;;;;;;;5.60;1.33;;;15.90;99.90;;;;;;5112720;28;20533;-66
2024/04/05 06:30:56;;;;;;;4.70;1.57;;;15.90;99.90;;;;;;5112904;28;20218;-66
2024/04/05 06:33:24;;;;;;;3.63;1.40;;;15.80;99.90;;;;;;5112929;28;21002;-66
2024/04/05 06:35:58;;;;;;;4.47;1.30;;;16.00;99.90;;;;;;5112892;28;20523;-66
2024/04/05 06:38:24;;;;;;;5.40;1.60;;;16.10;99.90;;;;;;5113199;28;20457;-66
2024/04/05 06:40:55;;;;;;;4.43;1.50;;;16.10;99.90;;;;;;5112981;28;20449;-66
2024/04/05 06:43:21;;;;;;;3.00;1.30;;;16.10;99.90;;;;;;5112995;28;20514;-66
2024/04/05 06:45:53;;;;;;;2.93;1.83;;;16.30;99.90;;;;;;5112935;28;20466;-67
2024/04/05 06:48:20;;;;;;;3.23;1.83;;;16.50;99.90;;;;;;5112934;28;20491;-66
2024/04/05 06:50:48;;;;;;;3.17;1.40;;;16.60;99.90;;;;;;5112907;28;20500;-66
2024/04/05 06:53:15;;;;;;;4.73;1.33;;;16.50;99.90;;;;;;5112549;28;20492;-67
2024/04/05 06:55:45;;;;;;;7.37;1.80;;;16.60;99.90;;;;;;5116029;28;20551;-67
2024/04/05 06:58:12;;;;;;;4.60;1.77;;;16.70;99.90;;;;;;5114233;27;20513;-66
2024/04/05 07:00:38;;;;;;;3.30;2.10;;;16.70;99.90;;;;;;5117214;27;20459;-66
2024/04/05 07:03:05;;;;;;;7.10;3.60;;;16.40;99.90;;;;;;5117992;27;20797;-67
2024/04/05 07:05:30;;;;;;;3.20;1.70;;;16.30;99.90;;;;;;5120906;27;20925;-66
2024/04/05 07:07:58;;;;;;;5.57;1.83;;;16.30;99.90;;;;;;5115588;27;20531;-65
2024/04/05 07:10:24;;;;;;;5.33;1.63;;;16.30;99.90;;;;;;5120348;27;20213;-65
2024/04/05 07:12:51;;;;;;;4.97;2.07;;;16.40;99.90;;;;;;5118469;27;20934;-66
2024/04/05 07:15:18;;;;;;;4.60;1.80;;;16.50;99.90;;;;;;5117524;27;20452;-66
2024/04/05 07:17:48;;;;;;;4.10;1.60;;;16.50;99.90;;;;;;5120824;27;20971;-65
2024/04/05 07:20:14;;;;;;;5.27;2.10;;;16.50;99.90;;;;;;5116435;27;20442;-66
2024/04/05 07:22:40;;;;;;;4.00;1.77;;;16.70;99.90;;;;;;5119634;27;21008;-65
2024/04/05 07:25:08;;;;;;;3.83;1.53;;;17.00;99.90;;;;;;5119467;27;20949;-66
2024/04/05 07:27:34;;;;;;;3.37;1.40;;;17.20;99.90;;;;;;5115948;27;20937;-66
2024/04/05 07:30:01;;;;;;;6.20;1.50;;;17.30;99.90;;;;;;5120784;27;20441;-66
2024/04/05 07:32:27;;;;;;;5.33;1.53;;;17.50;99.90;;;;;;5117275;27;20488;-66
2024/04/05 07:34:53;;;;;;;5.73;1.87;;;17.30;99.90;;;;;;5118625;27;20529;-66
2024/04/05 07:37:20;;;;;;;3.50;1.50;;;17.20;99.90;;;;;;5119951;27;20540;-65
2024/04/05 07:39:45;;;;;;;4.70;1.73;;;17.00;99.90;;;;;;5115132;27;20589;-66
2024/04/05 07:42:13;;;;;;;6.27;1.90;;;17.00;99.90;;;;;;5120541;27;20449;-66
2024/04/05 07:44:39;;;;;;;5.77;2.20;;;17.00;99.90;;;;;;5117719;27;20206;-66
2024/04/05 07:47:06;;;;;;;8.50;1.83;;;16.80;99.90;;;;;;5117580;27;20505;-66
2024/04/05 07:49:31;;;;;;;5.50;2.00;;;16.90;99.90;;;;;;5120732;27;20194;-65
2024/04/05 07:51:58;;;;;;;4.10;1.70;;;16.90;99.90;;;;;;5114491;27;21056;-67
2024/04/05 07:54:24;;;;;;;6.00;1.90;;;17.00;99.90;;;;;;5115265;28;20206;-66
2024/04/05 07:56:52;;;;;;;6.70;2.20;;;17.00;99.90;;;;;;5115004;27;20878;-66
2024/04/05 07:59:19;;;;;;;4.90;1.80;;;17.00;99.90;;;;;;5115095;28;20441;-66
2024/04/05 08:01:46;;;;;;;6.07;1.30;;;17.10;99.90;;;;;;5115020;28;20499;-67
2024/04/05 08:04:12;;;;;;;4.97;1.63;;;17.10;99.90;;;;;;5112102;28;20544;-66
2024/04/05 08:06:39;;;;;;;6.60;2.10;;;17.20;99.90;;;;;;5114474;28;20489;-66
2024/04/05 08:09:04;;;;;;;3.93;2.10;;;17.20;99.90;;;;;;5114773;28;20529;-66
2024/04/05 08:11:31;;;;;;;5.93;1.67;;;17.30;99.90;;;;;;5114848;28;21039;-66
2024/04/05 08:13:56;;;;;;;8.73;2.20;;;17.20;99.90;;;;;;5114860;28;20283;-66
2024/04/05 08:16:26;;;;;;;7.03;2.43;;;17.20;99.90;;;;;;5114802;28;20533;-66
2024/04/05 08:18:52;;;;;;;10.30;2.10;;;17.20;99.90;;;;;;5116558;27;20184;-66
2024/04/05 08:21:18;;;;;;;8.83;2.17;;;17.20;99.90;;;;;;5123789;27;20495;-66
2024/04/05 08:23:44;;;;;;;5.83;2.50;;;17.20;99.90;;;;;;5120978;27;20274;-66
2024/04/05 08:26:10;;;;;;;8.50;2.27;;;17.10;99.90;;;;;;5125067;27;20481;-66
2024/04/05 08:28:36;;;;;;;12.60;2.83;;;17.20;99.90;;;;;;5125514;27;20182;-66
2024/04/05 08:31:03;;;;;;;7.43;2.10;;;17.20;99.90;;;;;;5123320;27;20912;-66
2024/04/05 08:33:30;;;;;;;9.63;2.87;;;17.40;99.90;;;;;;5124805;27;20551;-66
2024/04/05 08:35:58;;;;;;;5.63;1.87;;;17.50;99.90;;;;;;5125184;27;20472;-66
2024/04/05 08:38:23;;;;;;;8.03;1.90;;;17.70;99.90;;;;;;5120419;27;20793;-66
2024/04/05 08:40:50;;;;;;;8.03;1.90;;;17.70;99.90;;;;;;5124728;27;20463;-66
2024/04/05 08:43:16;;;;;;;8.30;1.90;;;17.70;99.90;;;;;;5125134;27;20279;-66
2024/04/05 08:45:45;;;;;;;6.73;2.57;;;17.70;99.90;;;;;;5122938;27;20470;-66
2024/04/05 08:48:11;;;;;;;8.73;3.33;;;17.70;99.90;;;;;;5124173;27;20533;-66
2024/04/05 08:50:39;;;;;;;6.97;2.10;;;17.70;99.90;;;;;;5124997;27;20564;-66
2024/04/05 08:53:08;;;;;;;5.53;1.80;;;17.80;99.90;;;;;;5120531;27;20839;-66
2024/04/05 08:55:37;;;;;;;8.10;1.70;;;17.80;99.90;;;;;;5123861;27;20812;-66
2024/04/05 08:58:03;;;;;;;9.73;2.30;;;17.70;99.90;;;;;;5124997;27;20437;-66
2024/04/05 09:00:30;;;;;;;6.97;2.17;;;17.70;99.90;;;;;;5123517;27;20940;-66
2024/04/05 09:02:59;;;;;;;5.80;2.00;;;17.60;99.90;;;;;;5123280;27;20872;-66
2024/04/05 09:05:25;;;;;;;4.40;2.30;;;17.50;99.90;;;;;;5120075;27;20458;-66
2024/04/05 09:08:02;;;;;;;8.97;2.53;;;17.50;99.90;;;;;;5125776;27;20528;-67
2024/04/05 09:10:28;;;;;;;9.20;1.70;;;17.60;99.90;;;;;;5121022;27;20480;-67
2024/04/05 09:12:54;;;;;;;8.70;2.70;;;17.70;99.90;;;;;;5123405;27;20437;-67
2024/04/05 09:15:22;;;;;;;6.83;2.17;;;17.70;99.90;;;;;;5124537;27;20448;-67
2024/04/05 09:17:49;;;;;;;7.50;2.00;;;17.80;99.90;;;;;;5122439;27;20511;-66
2024/04/05 09:20:24;;;;;;;3.63;1.60;;;18.00;99.90;;;;;;5122913;27;20877;-66
2024/04/05 09:22:56;;;;;;;5.17;2.20;;;18.10;99.90;;;;;;5121440;27;20444;-66
2024/04/05 09:25:24;;;;;;;2.63;1.43;;;18.20;99.90;;;;;;5122459;27;20537;-66
2024/04/05 09:27:50;;;;;;;6.93;2.40;;;18.10;99.90;;;;;;5123739;27;20439;-66
2024/04/05 09:30:16;;;;;;;7.50;2.00;;;18.20;99.90;;;;;;5124030;27;20888;-67
2024/04/05 09:32:47;;;;;;;3.47;1.63;;;18.50;99.90;;;;;;5122184;27;20184;-66
2024/04/05 09:35:18;;;;;;;7.73;1.70;;;18.60;99.90;;;;;;5118841;27;20442;-66
2024/04/05 09:37:44;;;;;;;5.80;1.87;;;18.60;99.90;;;;;;5113478;28;20445;-66
2024/04/05 09:40:12;;;;;;;5.83;1.50;;;18.80;99.90;;;;;;5113181;28;20498;-66
2024/04/05 09:42:41;;;;;;;7.40;2.13;;;18.80;99.90;;;;;;5113068;28;20520;-66
2024/04/05 09:45:08;;;;;;;6.33;1.60;;;18.90;99.90;;;;;;5112776;28;20448;-66
2024/04/05 09:47:34;;;;;;;6.07;2.43;;;19.00;99.90;;;;;;5113025;28;20516;-67
2024/04/05 09:50:02;;;;;;;8.50;2.07;;;18.80;99.90;;;;;;5113462;28;20429;-66
2024/04/05 09:52:35;;;;;;;9.50;1.80;;;18.90;99.90;;;;;;5113317;28;20526;-66
2024/04/05 09:55:02;;;;;;;10.63;1.90;;;18.80;99.90;;;;;;5113335;28;20490;-67
2024/04/05 09:57:29;;;;;;;5.03;1.77;;;18.80;99.90;;;;;;5113272;28;20533;-67
2024/04/05 09:59:58;;;;;;;6.47;1.50;;;18.60;99.90;;;;;;5113393;28;20447;-67
2024/04/05 10:02:26;;;;;;;2.40;1.43;;;18.60;99.90;;;;;;5113492;28;20959;-68
2024/04/05 10:04:53;;;;;;;7.33;2.03;;;18.40;99.90;;;;;;5113412;28;20498;-67
2024/04/05 10:07:25;;;;;;;4.60;2.07;;;18.40;99.90;;;;;;5113573;28;20437;-67
2024/04/05 10:09:51;;;;;;;4.03;1.50;;;18.20;99.90;;;;;;5113322;28;20449;-67
2024/04/05 10:12:17;;;;;;;5.73;2.50;;;18.10;99.90;;;;;;5113077;28;20523;-68
2024/04/05 10:14:53;;;;;;;4.10;2.20;;;18.10;99.90;;;;;;5113464;28;20446;-67
2024/04/05 10:17:26;;;;;;;3.93;1.83;;;18.30;99.90;;;;;;5113325;28;20460;-67
2024/04/05 10:20:03;;;;;;;5.63;1.70;;;18.30;99.90;;;;;;5113284;28;20450;-68
2024/04/05 10:22:29;;;;;;;5.30;1.30;;;18.30;99.90;;;;;;5113092;28;20801;-67
2024/04/05 10:24:56;;;;;;;2.83;1.37;;;18.60;99.90;;;;;;5113032;28;20450;-67
2024/04/05 10:27:22;;;;;;;7.27;1.90;;;18.80;99.90;;;;;;5112954;28;20198;-67
2024/04/05 10:29:58;;;;;;;3.43;2.10;;;19.00;99.90;;;;;;5117070;28;20465;-67
2024/04/05 10:32:25;;;;;;;4.50;2.60;;;19.00;99.90;;;;;;5117025;28;20487;-67
2024/04/05 10:34:52;;;;;;;6.53;2.23;;;19.00;99.90;;;;;;5116966;28;20821;-67
2024/04/05 10:37:17;;;;;;;5.27;1.80;;;18.90;99.90;;;;;;5116944;28;20800;-67
2024/04/05 10:39:44;;;;;;;6.47;1.97;;;18.90;99.90;;;;;;5117125;28;20532;-67
2024/04/05 10:42:10;;;;;;;4.70;1.63;;;19.00;99.90;;;;;;5117059;28;20192;-67
2024/04/05 10:44:37;;;;;;;5.47;1.80;;;19.30;99.90;;;;;;5116892;27;20478;-67
2024/04/05 10:47:06;;;;;;;2.03;1.60;;;19.40;99.90;;;;;;5116547;28;20465;-67
2024/04/05 10:49:34;;;;;;;2.87;1.50;;;19.40;99.90;;;;;;5116648;28;20454;-67
2024/04/05 10:52:00;;;;;;;11.53;1.60;;;19.30;99.90;;;;;;5116580;28;20572;-67
2024/04/05 10:54:27;;;;;;;6.60;2.00;;;19.00;99.90;;;;;;5117076;28;20536;-67
2024/04/05 10:56:52;;;;;;;3.53;1.60;;;19.20;99.90;;;;;;5116989;27;20282;-67
2024/04/05 10:59:19;;;;;;;2.50;1.50;;;19.40;99.90;;;;;;5116559;28;20549;-67
2024/04/05 11:01:47;;;;;;;4.63;1.73;;;19.40;99.90;;;;;;5116456;28;20639;-67
2024/04/05 11:04:14;;;;;;;6.40;2.03;;;19.30;99.90;;;;;;5116256;28;20798;-67
2024/04/05 11:06:41;;;;;;;7.00;1.80;;;19.40;99.90;;;;;;5116717;28;20529;-67
2024/04/05 11:09:14;;;;;;;3.47;1.67;;;19.40;99.90;;;;;;5116270;28;20798;-68
2024/04/05 11:11:40;;;;;;;4.23;1.80;;;19.60;99.90;;;;;;5116229;28;20487;-67
2024/04/05 11:14:08;;;;;;;9.50;2.30;;;19.70;99.90;;;;;;5116299;27;20540;-68
2024/04/05 11:16:36;;;;;;;5.67;2.50;;;19.70;99.90;;;;;;5116077;28;20188;-68
2024/04/05 11:19:02;;;;;;;4.97;1.83;;;19.90;99.90;;;;;;5115954;27;20450;-68
2024/04/05 11:21:28;;;;;;;3.60;1.70;;;20.10;99.90;;;;;;5116177;28;20450;-67
2024/04/05 11:23:57;;;;;;;3.27;1.40;;;20.00;99.90;;;;;;5116187;28;20541;-68
2024/04/05 11:26:30;;;;;;;4.70;1.67;;;20.00;99.90;;;;;;5116110;28;20614;-68
2024/04/05 11:28:57;;;;;;;6.03;2.07;;;19.80;99.90;;;;;;5116042;28;20476;-68
2024/04/05 11:31:25;;;;;;;7.20;2.03;;;19.70;99.90;;;;;;5115683;28;20476;-67
2024/04/05 11:33:52;;;;;;;4.50;2.10;;;20.00;99.90;;;;;;5115807;28;20458;-68
2024/04/05 11:36:18;;;;;;;7.47;2.47;;;20.20;99.90;;;;;;5115906;28;20528;-68
2024/04/05 11:38:45;;;;;;;5.83;1.87;;;20.20;99.90;;;;;;5116088;28;20866;-68
2024/04/05 11:41:12;;;;;;;3.80;1.40;;;20.20;99.90;;;;;;5115051;28;20184;-68
2024/04/05 11:43:38;;;;;;;5.80;1.93;;;20.10;99.90;;;;;;5115671;28;20493;-68
2024/04/05 11:46:04;;;;;;;1.97;1.40;;;20.20;99.90;;;;;;5115350;27;20514;-67
2024/04/05 11:48:31;;;;;;;7.70;2.07;;;20.40;99.90;;;;;;5115732;28;20458;-68
2024/04/05 11:50:57;;;;;;;8.07;2.53;;;20.50;99.90;;;;;;5115557;28;20260;-68
2024/04/05 11:53:24;;;;;;;6.00;2.20;;;20.40;99.90;;;;;;5115580;28;20457;-68
2024/04/05 11:55:50;;;;;;;2.80;1.67;;;20.40;99.90;;;;;;5115463;28;20192;-68
2024/04/05 11:58:18;;;;;;;3.73;1.80;;;20.40;99.90;;;;;;5115324;28;20962;-68
2024/04/05 12:00:48;;;;;;;5.50;1.70;;;20.30;99.90;;;;;;5115368;28;20192;-68
2024/04/05 12:03:14;;;;;;;7.23;1.80;;;20.30;99.90;;;;;;5115202;28;20940;-68
2024/04/05 12:05:42;;;;;;;4.10;1.73;;;20.10;99.90;;;;;;5115382;28;20448;-68
2024/04/05 12:08:09;;;;;;;3.43;1.70;;;20.30;99.90;;;;;;5115482;28;20488;-68
2024/04/05 12:10:35;;;;;;;5.87;2.03;;;20.50;99.90;;;;;;5115196;28;20541;-68
2024/04/05 12:13:01;;;;;;;3.57;1.80;;;20.60;99.90;;;;;;5114932;28;20576;-68
2024/04/05 12:15:28;;;;;;;5.80;1.30;;;20.70;99.90;;;;;;5115240;28;20275;-68
2024/04/05 12:17:55;;;;;;;5.30;1.57;;;20.50;99.90;;;;;;5115148;28;20816;-68
2024/04/05 12:20:20;;;;;;;6.40;1.47;;;20.50;99.90;;;;;;5115059;28;20631;-68
2024/04/05 12:22:47;;;;;;;3.40;1.60;;;20.70;99.90;;;;;;5115342;28;20540;-68
2024/04/05 12:25:14;;;;;;;2.33;1.47;;;20.90;99.90;;;;;;5115143;28;20191;-68
2024/04/05 12:27:41;;;;;;;2.90;1.53;;;21.00;99.90;;;;;;5114678;28;20457;-67
2024/04/05 12:30:08;;;;;;;2.73;1.10;;;21.00;99.90;;;;;;5114644;28;20952;-68
2024/04/05 12:32:36;;;;;;;3.33;1.30;;;21.00;99.90;;;;;;5114696;28;20485;-68
2024/04/05 12:35:02;;;;;;;3.03;1.40;;;21.10;99.90;;;;;;5114752;28;20532;-68
2024/04/05 12:37:28;;;;;;;3.33;1.40;;;21.10;99.90;;;;;;5114675;28;20532;-68
2024/04/05 12:39:54;;;;;;;4.70;1.53;;;21.10;99.90;;;;;;5114486;28;20226;-68
2024/04/05 12:42:22;;;;;;;2.13;1.33;;;21.10;99.90;;;;;;5114314;28;20530;-68